sensor_id;sensor_type;location;lat;lon;timestamp;P1;durP1;ratioP1;P2;durP2;ratioP2
52650;SDS011;38537;47.226;39.702;2022-12-07T00:01:40;16.05;;;8.93;;
52650;SDS011;38537;47.226;39.702;2022-12-07T00:04:13;13.40;;;8.68;;
52650;SDS011;38537;47.226;39.702;2022-12-07T00:06:43;12.85;;;9.15;;
52650;SDS011;38537;47.226;39.702;2022-12-07T00:09:15;12.88;;;8.32;;
52650;SDS011;38537;47.226;39.702;2022-12-07T00:11:44;12.13;;;8.52;;
52650;SDS011;38537;47.226;39.702;2022-12-07T00:14:14;13.02;;;8.23;;
52650;SDS011;38537;47.226;39.702;2022-12-07T00:16:42;11.32;;;7.68;;
52650;SDS011;38537;47.226;39.702;2022-12-07T00:19:11;13.32;;;8.52;;
52650;SDS011;38537;47.226;39.702;2022-12-07T00:21:39;13.25;;;8.38;;
52650;SDS011;38537;47.226;39.702;2022-12-07T00:24:07;11.30;;;8.02;;
52650;SDS011;38537;47.226;39.702;2022-12-07T00:26:35;13.23;;;8.88;;
52650;SDS011;38537;47.226;39.702;2022-12-07T00:29:05;12.35;;;8.25;;
52650;SDS011;38537;47.226;39.702;2022-12-07T00:31:43;11.63;;;8.00;;
52650;SDS011;38537;47.226;39.702;2022-12-07T00:34:13;11.43;;;7.68;;
52650;SDS011;38537;47.226;39.702;2022-12-07T00:36:42;12.68;;;8.15;;
52650;SDS011;38537;47.226;39.702;2022-12-07T00:39:09;13.25;;;8.88;;
52650;SDS011;38537;47.226;39.702;2022-12-07T00:41:36;12.98;;;8.40;;
52650;SDS011;38537;47.226;39.702;2022-12-07T00:44:04;12.80;;;8.70;;
52650;SDS011;38537;47.226;39.702;2022-12-07T00:46:31;12.15;;;8.20;;
52650;SDS011;38537;47.226;39.702;2022-12-07T00:48:59;11.27;;;7.43;;
52650;SDS011;38537;47.226;39.702;2022-12-07T00:51:26;14.15;;;8.40;;
52650;SDS011;38537;47.226;39.702;2022-12-07T00:53:54;14.05;;;8.43;;
52650;SDS011;38537;47.226;39.702;2022-12-07T00:56:22;12.23;;;8.65;;
52650;SDS011;38537;47.226;39.702;2022-12-07T00:58:58;12.55;;;7.97;;
52650;SDS011;38537;47.226;39.702;2022-12-07T01:01:31;12.23;;;8.50;;
52650;SDS011;38537;47.226;39.702;2022-12-07T01:04:00;11.05;;;8.05;;
52650;SDS011;38537;47.226;39.702;2022-12-07T01:06:29;13.93;;;8.25;;
52650;SDS011;38537;47.226;39.702;2022-12-07T01:08:57;11.43;;;8.30;;
52650;SDS011;38537;47.226;39.702;2022-12-07T01:11:25;13.82;;;8.05;;
52650;SDS011;38537;47.226;39.702;2022-12-07T01:13:55;10.70;;;7.32;;
52650;SDS011;38537;47.226;39.702;2022-12-07T01:16:25;11.15;;;7.55;;
52650;SDS011;38537;47.226;39.702;2022-12-07T01:18:54;12.40;;;7.95;;
52650;SDS011;38537;47.226;39.702;2022-12-07T01:21:23;15.25;;;8.27;;
52650;SDS011;38537;47.226;39.702;2022-12-07T01:23:56;12.27;;;7.18;;
52650;SDS011;38537;47.226;39.702;2022-12-07T01:26:25;11.73;;;8.05;;
52650;SDS011;38537;47.226;39.702;2022-12-07T01:28:52;12.75;;;7.90;;
52650;SDS011;38537;47.226;39.702;2022-12-07T01:31:22;12.13;;;7.88;;
52650;SDS011;38537;47.226;39.702;2022-12-07T01:33:52;12.18;;;7.85;;
52650;SDS011;38537;47.226;39.702;2022-12-07T01:36:24;12.60;;;8.43;;
52650;SDS011;38537;47.226;39.702;2022-12-07T01:38:55;10.68;;;7.55;;
52650;SDS011;38537;47.226;39.702;2022-12-07T01:41:28;12.97;;;7.57;;
52650;SDS011;38537;47.226;39.702;2022-12-07T01:46:46;12.43;;;8.40;;
52650;SDS011;38537;47.226;39.702;2022-12-07T01:49:23;12.07;;;7.88;;
52650;SDS011;38537;47.226;39.702;2022-12-07T01:51:52;10.63;;;7.38;;
52650;SDS011;38537;47.226;39.702;2022-12-07T01:54:28;13.05;;;8.20;;
52650;SDS011;38537;47.226;39.702;2022-12-07T01:56:55;11.48;;;7.63;;
52650;SDS011;38537;47.226;39.702;2022-12-07T01:59:25;11.60;;;7.35;;
52650;SDS011;38537;47.226;39.702;2022-12-07T02:01:53;12.77;;;8.07;;
52650;SDS011;38537;47.226;39.702;2022-12-07T02:04:22;11.55;;;8.05;;
52650;SDS011;38537;47.226;39.702;2022-12-07T02:06:50;11.13;;;7.00;;
52650;SDS011;38537;47.226;39.702;2022-12-07T02:09:18;10.20;;;6.97;;
52650;SDS011;38537;47.226;39.702;2022-12-07T02:11:45;10.80;;;7.90;;
52650;SDS011;38537;47.226;39.702;2022-12-07T02:14:13;11.13;;;7.90;;
52650;SDS011;38537;47.226;39.702;2022-12-07T02:32:55;13.07;;;7.72;;
52650;SDS011;38537;47.226;39.702;2022-12-07T02:38:26;11.52;;;7.38;;
52650;SDS011;38537;47.226;39.702;2022-12-07T02:41:18;10.73;;;7.45;;
52650;SDS011;38537;47.226;39.702;2022-12-07T02:43:51;11.60;;;7.90;;
52650;SDS011;38537;47.226;39.702;2022-12-07T02:46:44;11.15;;;7.70;;
52650;SDS011;38537;47.226;39.702;2022-12-07T02:49:13;11.68;;;7.72;;
52650;SDS011;38537;47.226;39.702;2022-12-07T02:51:41;13.75;;;7.80;;
52650;SDS011;38537;47.226;39.702;2022-12-07T02:54:14;11.95;;;7.85;;
52650;SDS011;38537;47.226;39.702;2022-12-07T03:13:12;13.40;;;8.25;;
52650;SDS011;38537;47.226;39.702;2022-12-07T03:16:08;11.85;;;8.20;;
52650;SDS011;38537;47.226;39.702;2022-12-07T03:19:06;9.63;;;7.43;;
52650;SDS011;38537;47.226;39.702;2022-12-07T03:21:56;11.30;;;7.63;;
52650;SDS011;38537;47.226;39.702;2022-12-07T03:24:31;11.00;;;7.60;;
52650;SDS011;38537;47.226;39.702;2022-12-07T03:27:07;11.70;;;7.72;;
52650;SDS011;38537;47.226;39.702;2022-12-07T03:29:44;12.10;;;7.75;;
52650;SDS011;38537;47.226;39.702;2022-12-07T03:32:23;11.52;;;7.45;;
52650;SDS011;38537;47.226;39.702;2022-12-07T03:37:36;12.38;;;7.97;;
52650;SDS011;38537;47.226;39.702;2022-12-07T03:42:57;12.13;;;6.97;;
52650;SDS011;38537;47.226;39.702;2022-12-07T03:48:37;10.82;;;7.78;;
52650;SDS011;38537;47.226;39.702;2022-12-07T03:51:18;14.02;;;7.70;;
52650;SDS011;38537;47.226;39.702;2022-12-07T03:53:59;11.27;;;7.18;;
52650;SDS011;38537;47.226;39.702;2022-12-07T03:56:36;12.25;;;7.53;;
52650;SDS011;38537;47.226;39.702;2022-12-07T03:59:03;11.18;;;7.50;;
52650;SDS011;38537;47.226;39.702;2022-12-07T04:01:31;12.05;;;7.70;;
52650;SDS011;38537;47.226;39.702;2022-12-07T04:03:58;11.68;;;7.78;;
52650;SDS011;38537;47.226;39.702;2022-12-07T04:06:25;11.20;;;7.25;;
52650;SDS011;38537;47.226;39.702;2022-12-07T04:08:53;12.90;;;8.25;;
52650;SDS011;38537;47.226;39.702;2022-12-07T04:11:20;12.00;;;7.60;;
52650;SDS011;38537;47.226;39.702;2022-12-07T04:13:47;11.68;;;8.52;;
52650;SDS011;38537;47.226;39.702;2022-12-07T04:16:33;12.40;;;8.10;;
52650;SDS011;38537;47.226;39.702;2022-12-07T04:19:08;12.95;;;8.52;;
52650;SDS011;38537;47.226;39.702;2022-12-07T04:21:35;12.75;;;8.55;;
52650;SDS011;38537;47.226;39.702;2022-12-07T04:24:02;13.23;;;8.95;;
52650;SDS011;38537;47.226;39.702;2022-12-07T04:26:30;13.40;;;9.20;;
52650;SDS011;38537;47.226;39.702;2022-12-07T04:28:58;11.38;;;8.32;;
52650;SDS011;38537;47.226;39.702;2022-12-07T04:31:32;11.80;;;8.55;;
52650;SDS011;38537;47.226;39.702;2022-12-07T04:34:00;13.48;;;8.73;;
52650;SDS011;38537;47.226;39.702;2022-12-07T04:36:27;15.25;;;9.75;;
52650;SDS011;38537;47.226;39.702;2022-12-07T04:38:54;14.90;;;10.60;;
52650;SDS011;38537;47.226;39.702;2022-12-07T04:41:22;16.67;;;10.65;;
52650;SDS011;38537;47.226;39.702;2022-12-07T04:46:21;13.77;;;10.02;;
52650;SDS011;38537;47.226;39.702;2022-12-07T04:48:50;16.35;;;11.32;;
52650;SDS011;38537;47.226;39.702;2022-12-07T04:51:19;16.08;;;11.23;;
52650;SDS011;38537;47.226;39.702;2022-12-07T04:53:48;15.90;;;11.77;;
52650;SDS011;38537;47.226;39.702;2022-12-07T04:56:16;20.95;;;13.50;;
52650;SDS011;38537;47.226;39.702;2022-12-07T04:58:45;17.88;;;12.40;;
52650;SDS011;38537;47.226;39.702;2022-12-07T05:01:15;15.50;;;11.88;;
52650;SDS011;38537;47.226;39.702;2022-12-07T05:03:43;15.38;;;11.43;;
52650;SDS011;38537;47.226;39.702;2022-12-07T05:06:11;17.83;;;11.70;;
52650;SDS011;38537;47.226;39.702;2022-12-07T05:08:39;20.83;;;12.98;;
52650;SDS011;38537;47.226;39.702;2022-12-07T05:11:09;16.67;;;12.50;;
52650;SDS011;38537;47.226;39.702;2022-12-07T05:13:57;18.05;;;12.35;;
52650;SDS011;38537;47.226;39.702;2022-12-07T05:16:25;16.52;;;12.07;;
52650;SDS011;38537;47.226;39.702;2022-12-07T05:18:52;17.02;;;11.48;;
52650;SDS011;38537;47.226;39.702;2022-12-07T05:21:20;18.05;;;12.18;;
52650;SDS011;38537;47.226;39.702;2022-12-07T05:23:47;15.02;;;11.38;;
52650;SDS011;38537;47.226;39.702;2022-12-07T05:26:15;14.73;;;11.07;;
52650;SDS011;38537;47.226;39.702;2022-12-07T05:28:42;15.68;;;10.80;;
52650;SDS011;38537;47.226;39.702;2022-12-07T05:31:12;13.27;;;10.68;;
52650;SDS011;38537;47.226;39.702;2022-12-07T05:33:39;15.48;;;10.15;;
52650;SDS011;38537;47.226;39.702;2022-12-07T05:36:06;14.18;;;10.05;;
52650;SDS011;38537;47.226;39.702;2022-12-07T05:38:34;14.20;;;9.48;;
52650;SDS011;38537;47.226;39.702;2022-12-07T05:41:01;15.05;;;9.30;;
52650;SDS011;38537;47.226;39.702;2022-12-07T05:43:30;13.02;;;8.55;;
52650;SDS011;38537;47.226;39.702;2022-12-07T05:46:00;13.88;;;9.00;;
52650;SDS011;38537;47.226;39.702;2022-12-07T05:48:27;12.80;;;8.55;;
52650;SDS011;38537;47.226;39.702;2022-12-07T05:50:54;12.38;;;8.70;;
52650;SDS011;38537;47.226;39.702;2022-12-07T05:53:21;11.82;;;7.85;;
52650;SDS011;38537;47.226;39.702;2022-12-07T05:55:49;16.33;;;9.35;;
52650;SDS011;38537;47.226;39.702;2022-12-07T05:58:16;12.07;;;8.93;;
52650;SDS011;38537;47.226;39.702;2022-12-07T06:01:02;12.15;;;9.15;;
52650;SDS011;38537;47.226;39.702;2022-12-07T06:03:30;13.07;;;9.23;;
52650;SDS011;38537;47.226;39.702;2022-12-07T06:05:57;13.52;;;9.50;;
52650;SDS011;38537;47.226;39.702;2022-12-07T06:08:24;14.80;;;9.40;;
52650;SDS011;38537;47.226;39.702;2022-12-07T06:10:51;11.98;;;8.10;;
52650;SDS011;38537;47.226;39.702;2022-12-07T06:13:38;13.10;;;8.90;;
52650;SDS011;38537;47.226;39.702;2022-12-07T06:16:12;13.52;;;8.55;;
52650;SDS011;38537;47.226;39.702;2022-12-07T06:18:40;13.20;;;9.00;;
52650;SDS011;38537;47.226;39.702;2022-12-07T06:21:07;10.68;;;8.13;;
52650;SDS011;38537;47.226;39.702;2022-12-07T06:23:34;12.93;;;8.57;;
52650;SDS011;38537;47.226;39.702;2022-12-07T06:26:01;14.38;;;8.35;;
52650;SDS011;38537;47.226;39.702;2022-12-07T06:28:31;32.85;;;8.60;;
52650;SDS011;38537;47.226;39.702;2022-12-07T06:30:58;11.60;;;7.80;;
52650;SDS011;38537;47.226;39.702;2022-12-07T06:33:29;10.35;;;6.97;;
52650;SDS011;38537;47.226;39.702;2022-12-07T06:35:56;12.73;;;7.75;;
52650;SDS011;38537;47.226;39.702;2022-12-07T06:38:23;11.57;;;7.53;;
52650;SDS011;38537;47.226;39.702;2022-12-07T06:40:51;9.57;;;6.57;;
52650;SDS011;38537;47.226;39.702;2022-12-07T06:43:18;12.07;;;8.15;;
52650;SDS011;38537;47.226;39.702;2022-12-07T06:45:45;12.88;;;7.65;;
52650;SDS011;38537;47.226;39.702;2022-12-07T06:48:13;10.82;;;7.85;;
52650;SDS011;38537;47.226;39.702;2022-12-07T06:50:40;11.55;;;7.68;;
52650;SDS011;38537;47.226;39.702;2022-12-07T06:53:08;12.75;;;7.65;;
52650;SDS011;38537;47.226;39.702;2022-12-07T06:55:36;10.27;;;6.95;;
52650;SDS011;38537;47.226;39.702;2022-12-07T06:58:03;12.93;;;8.52;;
52650;SDS011;38537;47.226;39.702;2022-12-07T07:00:30;14.38;;;9.55;;
52650;SDS011;38537;47.226;39.702;2022-12-07T07:02:57;18.73;;;10.20;;
52650;SDS011;38537;47.226;39.702;2022-12-07T07:05:24;14.77;;;9.68;;
52650;SDS011;38537;47.226;39.702;2022-12-07T07:07:51;14.02;;;8.38;;
52650;SDS011;38537;47.226;39.702;2022-12-07T07:10:39;17.92;;;9.88;;
52650;SDS011;38537;47.226;39.702;2022-12-07T07:13:07;19.33;;;10.07;;
52650;SDS011;38537;47.226;39.702;2022-12-07T07:15:34;22.90;;;12.30;;
52650;SDS011;38537;47.226;39.702;2022-12-07T07:18:04;21.42;;;11.82;;
52650;SDS011;38537;47.226;39.702;2022-12-07T07:20:33;21.30;;;12.43;;
52650;SDS011;38537;47.226;39.702;2022-12-07T07:23:01;22.70;;;12.30;;
52650;SDS011;38537;47.226;39.702;2022-12-07T07:25:28;20.88;;;11.30;;
52650;SDS011;38537;47.226;39.702;2022-12-07T07:27:55;28.83;;;14.73;;
52650;SDS011;38537;47.226;39.702;2022-12-07T07:30:23;31.83;;;16.70;;
52650;SDS011;38537;47.226;39.702;2022-12-07T07:32:50;28.42;;;15.75;;
52650;SDS011;38537;47.226;39.702;2022-12-07T07:35:17;26.98;;;14.13;;
52650;SDS011;38537;47.226;39.702;2022-12-07T07:37:44;35.95;;;19.52;;
52650;SDS011;38537;47.226;39.702;2022-12-07T07:40:11;30.52;;;15.70;;
52650;SDS011;38537;47.226;39.702;2022-12-07T07:42:39;33.33;;;17.27;;
52650;SDS011;38537;47.226;39.702;2022-12-07T07:45:06;30.60;;;16.38;;
52650;SDS011;38537;47.226;39.702;2022-12-07T07:47:33;43.55;;;18.90;;
52650;SDS011;38537;47.226;39.702;2022-12-07T07:50:01;36.65;;;19.38;;
52650;SDS011;38537;47.226;39.702;2022-12-07T07:52:29;37.10;;;18.70;;
52650;SDS011;38537;47.226;39.702;2022-12-07T07:54:56;33.45;;;18.10;;
52650;SDS011;38537;47.226;39.702;2022-12-07T07:57:23;28.23;;;15.75;;
52650;SDS011;38537;47.226;39.702;2022-12-07T07:59:50;26.13;;;14.30;;
52650;SDS011;38537;47.226;39.702;2022-12-07T08:02:18;21.23;;;11.48;;
52650;SDS011;38537;47.226;39.702;2022-12-07T08:04:46;18.00;;;10.05;;
52650;SDS011;38537;47.226;39.702;2022-12-07T08:07:14;15.77;;;8.77;;
52650;SDS011;38537;47.226;39.702;2022-12-07T08:09:42;17.85;;;8.77;;
52650;SDS011;38537;47.226;39.702;2022-12-07T08:12:09;15.90;;;8.90;;
52650;SDS011;38537;47.226;39.702;2022-12-07T08:14:36;13.55;;;8.88;;
52650;SDS011;38537;47.226;39.702;2022-12-07T08:17:03;13.50;;;8.45;;
52650;SDS011;38537;47.226;39.702;2022-12-07T08:19:30;15.65;;;8.60;;
52650;SDS011;38537;47.226;39.702;2022-12-07T08:21:58;11.90;;;7.10;;
52650;SDS011;38537;47.226;39.702;2022-12-07T08:24:25;10.48;;;6.88;;
52650;SDS011;38537;47.226;39.702;2022-12-07T08:26:52;10.63;;;6.85;;
52650;SDS011;38537;47.226;39.702;2022-12-07T08:29:19;11.77;;;7.03;;
52650;SDS011;38537;47.226;39.702;2022-12-07T08:31:47;11.10;;;6.63;;
52650;SDS011;38537;47.226;39.702;2022-12-07T08:34:14;10.43;;;6.75;;
52650;SDS011;38537;47.226;39.702;2022-12-07T08:36:41;9.80;;;6.45;;
52650;SDS011;38537;47.226;39.702;2022-12-07T08:39:08;11.48;;;6.28;;
52650;SDS011;38537;47.226;39.702;2022-12-07T08:41:56;12.57;;;6.90;;
52650;SDS011;38537;47.226;39.702;2022-12-07T08:44:23;11.90;;;7.18;;
52650;SDS011;38537;47.226;39.702;2022-12-07T08:46:51;9.20;;;5.88;;
52650;SDS011;38537;47.226;39.702;2022-12-07T08:49:25;11.07;;;6.82;;
52650;SDS011;38537;47.226;39.702;2022-12-07T08:51:57;12.70;;;6.82;;
52650;SDS011;38537;47.226;39.702;2022-12-07T08:54:25;10.77;;;6.90;;
52650;SDS011;38537;47.226;39.702;2022-12-07T08:56:53;8.75;;;6.80;;
52650;SDS011;38537;47.226;39.702;2022-12-07T08:59:25;9.75;;;6.57;;
52650;SDS011;38537;47.226;39.702;2022-12-07T09:01:54;10.45;;;6.80;;
52650;SDS011;38537;47.226;39.702;2022-12-07T09:04:21;9.00;;;6.30;;
52650;SDS011;38537;47.226;39.702;2022-12-07T09:06:48;10.43;;;6.28;;
52650;SDS011;38537;47.226;39.702;2022-12-07T09:09:16;9.77;;;6.75;;
52650;SDS011;38537;47.226;39.702;2022-12-07T09:11:43;9.93;;;6.82;;
52650;SDS011;38537;47.226;39.702;2022-12-07T09:14:12;9.02;;;6.00;;
52650;SDS011;38537;47.226;39.702;2022-12-07T09:16:40;9.18;;;5.70;;
52650;SDS011;38537;47.226;39.702;2022-12-07T09:19:07;12.45;;;7.68;;
52650;SDS011;38537;47.226;39.702;2022-12-07T09:21:34;10.50;;;6.97;;
52650;SDS011;38537;47.226;39.702;2022-12-07T09:24:02;10.68;;;6.38;;
52650;SDS011;38537;47.226;39.702;2022-12-07T09:26:29;16.83;;;9.25;;
52650;SDS011;38537;47.226;39.702;2022-12-07T09:28:57;11.90;;;7.95;;
52650;SDS011;38537;47.226;39.702;2022-12-07T09:31:24;10.98;;;7.47;;
52650;SDS011;38537;47.226;39.702;2022-12-07T09:33:55;14.15;;;8.82;;
52650;SDS011;38537;47.226;39.702;2022-12-07T09:36:24;14.90;;;8.45;;
52650;SDS011;38537;47.226;39.702;2022-12-07T09:38:52;13.68;;;8.77;;
52650;SDS011;38537;47.226;39.702;2022-12-07T09:41:19;12.07;;;8.15;;
52650;SDS011;38537;47.226;39.702;2022-12-07T09:43:47;11.95;;;8.35;;
52650;SDS011;38537;47.226;39.702;2022-12-07T09:46:15;13.32;;;8.65;;
52650;SDS011;38537;47.226;39.702;2022-12-07T09:48:46;13.27;;;8.38;;
52650;SDS011;38537;47.226;39.702;2022-12-07T09:51:19;12.98;;;8.70;;
52650;SDS011;38537;47.226;39.702;2022-12-07T09:53:54;15.38;;;9.05;;
52650;SDS011;38537;47.226;39.702;2022-12-07T09:56:24;12.88;;;9.20;;
52650;SDS011;38537;47.226;39.702;2022-12-07T09:58:55;13.90;;;8.75;;
52650;SDS011;38537;47.226;39.702;2022-12-07T10:01:30;15.65;;;9.35;;
52650;SDS011;38537;47.226;39.702;2022-12-07T10:04:01;14.38;;;9.18;;
52650;SDS011;38537;47.226;39.702;2022-12-07T10:06:43;14.80;;;9.13;;
52650;SDS011;38537;47.226;39.702;2022-12-07T10:09:14;15.73;;;9.60;;
52650;SDS011;38537;47.226;39.702;2022-12-07T10:11:59;16.50;;;8.93;;
52650;SDS011;38537;47.226;39.702;2022-12-07T10:14:33;15.43;;;9.18;;
52650;SDS011;38537;47.226;39.702;2022-12-07T10:17:32;13.93;;;9.05;;
52650;SDS011;38537;47.226;39.702;2022-12-07T10:20:14;12.57;;;8.25;;
52650;SDS011;38537;47.226;39.702;2022-12-07T10:25:22;14.52;;;9.00;;
52650;SDS011;38537;47.226;39.702;2022-12-07T10:33:27;13.70;;;8.70;;
52650;SDS011;38537;47.226;39.702;2022-12-07T10:35:57;15.30;;;8.88;;
52650;SDS011;38537;47.226;39.702;2022-12-07T10:38:26;22.17;;;11.98;;
52650;SDS011;38537;47.226;39.702;2022-12-07T10:41:02;27.83;;;14.73;;
52650;SDS011;38537;47.226;39.702;2022-12-07T10:43:31;25.00;;;13.32;;
52650;SDS011;38537;47.226;39.702;2022-12-07T10:54:34;19.63;;;10.20;;
52650;SDS011;38537;47.226;39.702;2022-12-07T10:59:59;14.23;;;8.70;;
52650;SDS011;38537;47.226;39.702;2022-12-07T11:05:17;14.32;;;9.55;;
52650;SDS011;38537;47.226;39.702;2022-12-07T11:10:56;16.23;;;8.77;;
52650;SDS011;38537;47.226;39.702;2022-12-07T11:18:50;14.18;;;8.73;;
52650;SDS011;38537;47.226;39.702;2022-12-07T11:30:16;16.20;;;9.90;;
52650;SDS011;38537;47.226;39.702;2022-12-07T11:32:57;14.88;;;9.93;;
52650;SDS011;38537;47.226;39.702;2022-12-07T11:35:36;14.85;;;9.25;;
52650;SDS011;38537;47.226;39.702;2022-12-07T11:38:31;14.68;;;9.23;;
52650;SDS011;38537;47.226;39.702;2022-12-07T11:41:25;16.52;;;9.20;;
52650;SDS011;38537;47.226;39.702;2022-12-07T11:44:02;12.35;;;8.30;;
52650;SDS011;38537;47.226;39.702;2022-12-07T11:54:56;13.48;;;8.02;;
52650;SDS011;38537;47.226;39.702;2022-12-07T11:57:33;13.52;;;7.90;;
52650;SDS011;38537;47.226;39.702;2022-12-07T12:00:06;12.10;;;7.50;;
52650;SDS011;38537;47.226;39.702;2022-12-07T12:05:46;12.45;;;7.35;;
52650;SDS011;38537;47.226;39.702;2022-12-07T12:08:15;11.32;;;7.68;;
52650;SDS011;38537;47.226;39.702;2022-12-07T12:11:22;11.13;;;7.80;;
52650;SDS011;38537;47.226;39.702;2022-12-07T12:20:20;10.48;;;6.40;;
52650;SDS011;38537;47.226;39.702;2022-12-07T12:28:23;10.98;;;7.03;;
52650;SDS011;38537;47.226;39.702;2022-12-07T12:31:05;9.68;;;6.90;;
52650;SDS011;38537;47.226;39.702;2022-12-07T12:33:32;10.40;;;7.10;;
52650;SDS011;38537;47.226;39.702;2022-12-07T12:39:09;11.00;;;7.38;;
52650;SDS011;38537;47.226;39.702;2022-12-07T12:46:56;12.70;;;8.10;;
52650;SDS011;38537;47.226;39.702;2022-12-07T12:54:33;11.65;;;7.28;;
52650;SDS011;38537;47.226;39.702;2022-12-07T13:02:31;11.80;;;6.95;;
52650;SDS011;38537;47.226;39.702;2022-12-07T13:15:45;10.73;;;6.75;;
52650;SDS011;38537;47.226;39.702;2022-12-07T13:20:45;12.55;;;6.63;;
52650;SDS011;38537;47.226;39.702;2022-12-07T13:23:23;11.63;;;7.70;;
52650;SDS011;38537;47.226;39.702;2022-12-07T13:28:38;11.00;;;6.97;;
52650;SDS011;38537;47.226;39.702;2022-12-07T13:31:13;10.30;;;7.10;;
52650;SDS011;38537;47.226;39.702;2022-12-07T13:33:46;12.57;;;7.20;;
52650;SDS011;38537;47.226;39.702;2022-12-07T13:38:54;12.80;;;6.80;;
52650;SDS011;38537;47.226;39.702;2022-12-07T13:41:27;12.00;;;7.18;;
52650;SDS011;38537;47.226;39.702;2022-12-07T13:44:00;10.75;;;7.40;;
52650;SDS011;38537;47.226;39.702;2022-12-07T13:49:27;10.68;;;6.60;;
52650;SDS011;38537;47.226;39.702;2022-12-07T13:52:22;10.65;;;6.90;;
52650;SDS011;38537;47.226;39.702;2022-12-07T13:54:57;10.65;;;6.80;;
52650;SDS011;38537;47.226;39.702;2022-12-07T13:57:40;10.73;;;7.55;;
52650;SDS011;38537;47.226;39.702;2022-12-07T14:00:16;11.48;;;7.45;;
52650;SDS011;38537;47.226;39.702;2022-12-07T14:02:56;11.10;;;7.43;;
52650;SDS011;38537;47.226;39.702;2022-12-07T14:05:32;9.80;;;6.85;;
52650;SDS011;38537;47.226;39.702;2022-12-07T14:08:02;10.30;;;7.18;;
52650;SDS011;38537;47.226;39.702;2022-12-07T14:10:33;9.85;;;7.03;;
52650;SDS011;38537;47.226;39.702;2022-12-07T14:13:02;11.70;;;7.10;;
52650;SDS011;38537;47.226;39.702;2022-12-07T14:15:50;11.35;;;7.60;;
52650;SDS011;38537;47.226;39.702;2022-12-07T14:21:04;10.52;;;6.80;;
52650;SDS011;38537;47.226;39.702;2022-12-07T14:23:32;10.82;;;7.35;;
52650;SDS011;38537;47.226;39.702;2022-12-07T14:26:21;11.23;;;6.85;;
52650;SDS011;38537;47.226;39.702;2022-12-07T14:28:49;9.85;;;6.72;;
52650;SDS011;38537;47.226;39.702;2022-12-07T14:31:17;8.88;;;6.13;;
52650;SDS011;38537;47.226;39.702;2022-12-07T14:33:58;9.27;;;5.72;;
52650;SDS011;38537;47.226;39.702;2022-12-07T14:36:26;10.05;;;5.90;;
52650;SDS011;38537;47.226;39.702;2022-12-07T14:38:54;9.13;;;5.90;;
52650;SDS011;38537;47.226;39.702;2022-12-07T14:41:22;10.18;;;5.93;;
52650;SDS011;38537;47.226;39.702;2022-12-07T14:44:10;8.90;;;5.72;;
52650;SDS011;38537;47.226;39.702;2022-12-07T14:46:59;9.73;;;5.78;;
52650;SDS011;38537;47.226;39.702;2022-12-07T14:49:46;7.05;;;5.15;;
52650;SDS011;38537;47.226;39.702;2022-12-07T14:52:15;7.30;;;5.10;;
52650;SDS011;38537;47.226;39.702;2022-12-07T14:55:30;9.80;;;5.40;;
52650;SDS011;38537;47.226;39.702;2022-12-07T14:57:57;8.82;;;5.55;;
52650;SDS011;38537;47.226;39.702;2022-12-07T15:00:26;6.90;;;4.25;;
52650;SDS011;38537;47.226;39.702;2022-12-07T15:02:54;8.07;;;4.85;;
52650;SDS011;38537;47.226;39.702;2022-12-07T15:05:23;7.80;;;5.15;;
52650;SDS011;38537;47.226;39.702;2022-12-07T15:07:50;7.82;;;5.10;;
52650;SDS011;38537;47.226;39.702;2022-12-07T15:10:23;6.55;;;4.95;;
52650;SDS011;38537;47.226;39.702;2022-12-07T15:12:56;8.05;;;5.07;;
52650;SDS011;38537;47.226;39.702;2022-12-07T15:15:47;7.53;;;5.00;;
52650;SDS011;38537;47.226;39.702;2022-12-07T15:18:16;8.82;;;5.80;;
52650;SDS011;38537;47.226;39.702;2022-12-07T15:20:45;9.07;;;5.28;;
52650;SDS011;38537;47.226;39.702;2022-12-07T15:23:12;9.18;;;5.78;;
52650;SDS011;38537;47.226;39.702;2022-12-07T15:25:44;9.10;;;6.00;;
52650;SDS011;38537;47.226;39.702;2022-12-07T15:28:13;8.77;;;5.70;;
52650;SDS011;38537;47.226;39.702;2022-12-07T15:30:42;10.27;;;6.03;;
52650;SDS011;38537;47.226;39.702;2022-12-07T15:33:11;13.38;;;7.15;;
52650;SDS011;38537;47.226;39.702;2022-12-07T15:35:43;12.50;;;7.05;;
52650;SDS011;38537;47.226;39.702;2022-12-07T15:38:12;14.63;;;6.80;;
52650;SDS011;38537;47.226;39.702;2022-12-07T15:40:39;10.18;;;6.88;;
52650;SDS011;38537;47.226;39.702;2022-12-07T15:43:08;10.07;;;6.20;;
52650;SDS011;38537;47.226;39.702;2022-12-07T15:45:56;11.35;;;6.57;;
52650;SDS011;38537;47.226;39.702;2022-12-07T15:48:24;11.88;;;7.13;;
52650;SDS011;38537;47.226;39.702;2022-12-07T15:51:00;11.80;;;7.55;;
52650;SDS011;38537;47.226;39.702;2022-12-07T15:53:31;11.80;;;7.40;;
52650;SDS011;38537;47.226;39.702;2022-12-07T15:56:00;13.70;;;8.20;;
52650;SDS011;38537;47.226;39.702;2022-12-07T15:58:28;11.75;;;7.32;;
52650;SDS011;38537;47.226;39.702;2022-12-07T16:00:55;14.20;;;8.07;;
52650;SDS011;38537;47.226;39.702;2022-12-07T16:03:22;12.43;;;7.57;;
52650;SDS011;38537;47.226;39.702;2022-12-07T16:05:50;16.58;;;9.27;;
52650;SDS011;38537;47.226;39.702;2022-12-07T16:08:18;14.98;;;9.25;;
52650;SDS011;38537;47.226;39.702;2022-12-07T16:10:46;11.60;;;7.47;;
52650;SDS011;38537;47.226;39.702;2022-12-07T16:13:13;13.07;;;7.95;;
52650;SDS011;38537;47.226;39.702;2022-12-07T16:15:41;13.70;;;7.68;;
52650;SDS011;38537;47.226;39.702;2022-12-07T16:18:09;13.75;;;8.32;;
52650;SDS011;38537;47.226;39.702;2022-12-07T16:20:36;10.63;;;7.20;;
52650;SDS011;38537;47.226;39.702;2022-12-07T16:23:03;13.07;;;8.13;;
52650;SDS011;38537;47.226;39.702;2022-12-07T16:25:31;13.60;;;8.13;;
52650;SDS011;38537;47.226;39.702;2022-12-07T16:27:59;12.07;;;8.10;;
52650;SDS011;38537;47.226;39.702;2022-12-07T16:30:26;11.82;;;8.15;;
52650;SDS011;38537;47.226;39.702;2022-12-07T16:32:53;14.43;;;8.02;;
52650;SDS011;38537;47.226;39.702;2022-12-07T16:35:27;9.70;;;6.85;;
52650;SDS011;38537;47.226;39.702;2022-12-07T16:37:55;12.18;;;8.18;;
52650;SDS011;38537;47.226;39.702;2022-12-07T16:40:22;11.50;;;7.32;;
52650;SDS011;38537;47.226;39.702;2022-12-07T16:42:49;11.02;;;7.65;;
52650;SDS011;38537;47.226;39.702;2022-12-07T16:45:16;11.90;;;7.82;;
52650;SDS011;38537;47.226;39.702;2022-12-07T16:47:46;12.02;;;7.32;;
52650;SDS011;38537;47.226;39.702;2022-12-07T16:50:13;11.20;;;6.70;;
52650;SDS011;38537;47.226;39.702;2022-12-07T16:52:40;12.57;;;6.93;;
52650;SDS011;38537;47.226;39.702;2022-12-07T16:55:08;11.45;;;7.43;;
52650;SDS011;38537;47.226;39.702;2022-12-07T16:57:35;10.85;;;6.38;;
52650;SDS011;38537;47.226;39.702;2022-12-07T17:00:02;8.65;;;5.82;;
52650;SDS011;38537;47.226;39.702;2022-12-07T17:02:31;10.18;;;6.47;;
52650;SDS011;38537;47.226;39.702;2022-12-07T17:04:58;12.57;;;7.00;;
52650;SDS011;38537;47.226;39.702;2022-12-07T17:07:25;10.93;;;6.40;;
52650;SDS011;38537;47.226;39.702;2022-12-07T17:09:52;10.88;;;6.57;;
52650;SDS011;38537;47.226;39.702;2022-12-07T17:12:20;10.93;;;6.70;;
52650;SDS011;38537;47.226;39.702;2022-12-07T17:14:47;9.80;;;6.30;;
52650;SDS011;38537;47.226;39.702;2022-12-07T17:17:33;9.68;;;6.72;;
52650;SDS011;38537;47.226;39.702;2022-12-07T17:20:00;13.70;;;7.35;;